Time;durP1;ratioP1;P1;durP2;ratioP2;P2;SDS_P1;SDS_P2;PMS_P1;PMS_P2;Temp;Humidity;BMP_temperature;BMP_pressure;BME280_temperature;BME280_humidity;BME280_pressure;Samples;Min_cycle;Max_cycle;Signal;HPM_P1;HPM_P2
2024/03/02 00:00:21;;;;;;;13.33;11.67;;;6.60;99.90;;;;;;5033914;28;20416;-72
2024/03/02 00:02:49;;;;;;;12.90;11.20;;;6.60;99.90;;;;;;5034316;28;20474;-72
2024/03/02 00:05:22;;;;;;;13.90;11.10;;;6.60;99.90;;;;;;5032764;28;20763;-72
2024/03/02 00:07:56;;;;;;;12.20;11.00;;;6.60;99.90;;;;;;5033111;28;20837;-72
2024/03/02 00:10:37;;;;;;;14.53;11.00;;;6.60;99.90;;;;;;5033731;28;20409;-72
2024/03/02 00:13:02;;;;;;;16.53;11.47;;;6.60;99.90;;;;;;5033729;28;20456;-72
2024/03/02 00:15:46;;;;;;;12.07;10.80;;;6.60;99.90;;;;;;5033613;28;20429;-72
2024/03/02 00:18:14;;;;;;;12.80;11.60;;;6.60;99.90;;;;;;5032845;28;20220;-72
2024/03/02 00:20:40;;;;;;;12.47;10.53;;;6.60;99.90;;;;;;5033382;28;20416;-72
2024/03/02 00:23:10;;;;;;;13.20;10.90;;;6.50;99.90;;;;;;5033600;28;20416;-72
2024/03/02 00:25:43;;;;;;;15.87;12.33;;;6.40;99.90;;;;;;5033362;28;20926;-71
2024/03/02 00:28:17;;;;;;;14.23;11.97;;;6.40;99.90;;;;;;5032641;28;20481;-72
2024/03/02 00:30:59;;;;;;;15.70;12.53;;;6.40;99.90;;;;;;5033395;28;20417;-72
2024/03/02 00:33:30;;;;;;;18.03;10.60;;;6.40;99.90;;;;;;5033376;28;20479;-72
2024/03/02 00:35:56;;;;;;;15.10;12.40;;;6.40;99.90;;;;;;5033216;28;20432;-72
2024/03/02 00:38:22;;;;;;;15.93;13.20;;;6.40;99.90;;;;;;5032411;28;20930;-72
2024/03/02 00:40:48;;;;;;;13.23;10.83;;;6.40;99.90;;;;;;5033141;28;20522;-73
2024/03/02 00:43:52;;;;;;;13.77;12.30;;;6.50;99.90;;;;;;5033156;28;20966;-72
2024/03/02 00:46:19;;;;;;;13.73;11.57;;;6.40;99.90;;;;;;5032724;28;20249;-72
2024/03/02 00:48:56;;;;;;;13.27;11.57;;;6.50;99.90;;;;;;5032519;28;20444;-72
2024/03/02 00:51:23;;;;;;;12.90;11.50;;;6.50;99.90;;;;;;5032973;28;20417;-72
2024/03/02 00:53:49;;;;;;;13.47;12.07;;;6.50;99.90;;;;;;5032775;28;20464;-72
2024/03/02 00:56:15;;;;;;;11.30;10.20;;;6.50;99.90;;;;;;5032704;28;20551;-72
2024/03/02 00:58:40;;;;;;;13.77;12.33;;;6.60;99.90;;;;;;5032151;28;20543;-72
2024/03/02 01:01:07;;;;;;;13.30;10.70;;;6.50;99.90;;;;;;5032667;28;20174;-72
2024/03/02 01:03:33;;;;;;;11.43;10.20;;;6.50;99.90;;;;;;5032846;28;20533;-72
2024/03/02 01:05:58;;;;;;;14.80;9.83;;;6.50;99.90;;;;;;5031729;28;20504;-72
2024/03/02 01:08:25;;;;;;;12.70;10.33;;;6.40;99.90;;;;;;5031533;28;20866;-72
2024/03/02 01:10:50;;;;;;;14.23;11.17;;;6.40;99.90;;;;;;5032574;28;20301;-72
2024/03/02 01:13:16;;;;;;;16.30;11.83;;;6.40;99.90;;;;;;5032398;28;20547;-72
2024/03/02 01:15:41;;;;;;;13.50;9.90;;;6.40;99.90;;;;;;5031248;28;20531;-72
2024/03/02 01:18:07;;;;;;;14.10;10.27;;;6.30;99.90;;;;;;5031653;28;20194;-72
2024/03/02 01:20:33;;;;;;;12.30;9.83;;;6.30;99.90;;;;;;5032536;28;20217;-72
2024/03/02 01:22:58;;;;;;;12.63;10.87;;;6.30;99.90;;;;;;5032479;28;20449;-72
2024/03/02 01:25:24;;;;;;;13.43;11.00;;;6.20;99.90;;;;;;5032315;28;20201;-72
2024/03/02 01:27:50;;;;;;;15.63;12.10;;;6.20;99.90;;;;;;5031536;28;20197;-72
2024/03/02 01:30:16;;;;;;;12.57;10.83;;;6.20;99.90;;;;;;5032270;28;20902;-71
2024/03/02 01:32:41;;;;;;;12.13;10.77;;;6.20;99.90;;;;;;5031633;28;20589;-72
2024/03/02 01:35:07;;;;;;;12.50;10.23;;;6.10;99.90;;;;;;5032232;28;20201;-72
2024/03/02 01:37:33;;;;;;;13.83;11.33;;;6.10;99.90;;;;;;5030132;28;20170;-72
2024/03/02 01:39:58;;;;;;;14.13;11.60;;;6.10;99.90;;;;;;5032101;28;20934;-72
2024/03/02 01:42:24;;;;;;;12.20;10.50;;;6.10;99.90;;;;;;5032062;28;20688;-72
2024/03/02 01:44:50;;;;;;;13.47;10.50;;;6.10;99.90;;;;;;5032063;28;20636;-72
2024/03/02 01:47:16;;;;;;;12.63;10.27;;;6.10;99.90;;;;;;5031388;28;20201;-72
2024/03/02 01:49:41;;;;;;;13.00;10.67;;;6.00;99.90;;;;;;5032062;28;20471;-71
2024/03/02 01:52:07;;;;;;;12.57;11.30;;;6.00;99.90;;;;;;5031952;28;20185;-72
2024/03/02 01:54:33;;;;;;;14.07;11.77;;;6.00;99.90;;;;;;5031866;28;20206;-72
2024/03/02 01:56:59;;;;;;;11.93;10.23;;;6.00;99.90;;;;;;5031007;28;20221;-72
2024/03/02 01:59:25;;;;;;;14.00;11.50;;;5.90;99.90;;;;;;5032098;28;20601;-72
2024/03/02 02:01:51;;;;;;;15.77;11.70;;;5.90;99.90;;;;;;5031983;28;20429;-72
2024/03/02 02:04:17;;;;;;;10.93;9.80;;;5.90;99.90;;;;;;5030614;28;20515;-71
2024/03/02 02:06:44;;;;;;;15.60;11.87;;;5.90;99.90;;;;;;5028881;28;20703;-72
2024/03/02 02:09:10;;;;;;;11.60;10.43;;;5.80;99.90;;;;;;5031795;28;20277;-72
2024/03/02 02:11:35;;;;;;;15.70;11.03;;;5.70;99.90;;;;;;5031862;28;20452;-71
2024/03/02 02:14:01;;;;;;;14.97;11.83;;;5.70;99.90;;;;;;5031900;28;20201;-72
2024/03/02 02:16:26;;;;;;;22.03;17.97;;;5.70;99.90;;;;;;5031073;28;20248;-72
2024/03/02 02:18:52;;;;;;;17.30;12.97;;;5.60;99.90;;;;;;5031752;28;20252;-72
2024/03/02 02:21:17;;;;;;;12.70;10.00;;;5.50;99.90;;;;;;5031739;28;20620;-72
2024/03/02 02:23:46;;;;;;;12.97;11.30;;;5.50;99.90;;;;;;5031906;28;20181;-72
2024/03/02 02:26:12;;;;;;;13.77;11.33;;;5.50;99.90;;;;;;5031718;28;20255;-72
2024/03/02 02:28:37;;;;;;;12.33;11.00;;;5.40;99.90;;;;;;5031064;28;20866;-72
2024/03/02 02:31:03;;;;;;;13.80;10.83;;;5.40;99.90;;;;;;5031754;28;20177;-72
2024/03/02 02:33:29;;;;;;;12.93;11.40;;;5.40;99.90;;;;;;5031581;28;20205;-71
2024/03/02 02:35:54;;;;;;;12.17;10.87;;;5.40;99.90;;;;;;5031608;28;20281;-72
2024/03/02 02:38:20;;;;;;;19.33;14.57;;;5.40;99.90;;;;;;5030762;28;20191;-72
2024/03/02 02:40:46;;;;;;;15.73;13.70;;;5.30;99.90;;;;;;5031674;28;20261;-72
2024/03/02 02:43:11;;;;;;;16.27;12.50;;;5.30;99.90;;;;;;5031705;28;20424;-72
2024/03/02 02:45:37;;;;;;;14.10;11.87;;;5.30;99.90;;;;;;5034538;28;20553;-73
2024/03/02 02:48:03;;;;;;;18.70;12.30;;;5.30;99.90;;;;;;5034501;28;20678;-72
2024/03/02 02:50:28;;;;;;;15.13;12.00;;;5.20;99.90;;;;;;5035276;28;20632;-72
2024/03/02 02:52:54;;;;;;;19.00;14.00;;;5.20;99.90;;;;;;5035017;28;20423;-72
2024/03/02 02:55:19;;;;;;;18.30;14.50;;;5.20;99.90;;;;;;5035111;28;20163;-72
2024/03/02 02:57:46;;;;;;;15.17;11.97;;;5.20;99.90;;;;;;5034289;28;20194;-72
2024/03/02 03:00:14;;;;;;;16.33;12.10;;;5.10;99.90;;;;;;5035033;28;20190;-71
2024/03/02 03:02:43;;;;;;;13.57;11.73;;;5.20;99.90;;;;;;5034997;28;20416;-72
2024/03/02 03:05:10;;;;;;;17.03;13.47;;;5.10;99.90;;;;;;5034941;28;20424;-72
2024/03/02 03:07:36;;;;;;;15.43;12.60;;;5.10;99.90;;;;;;5034081;28;20417;-72
2024/03/02 03:10:03;;;;;;;18.43;13.63;;;5.10;99.90;;;;;;5034978;28;20428;-72
2024/03/02 03:12:29;;;;;;;16.00;12.20;;;5.10;99.90;;;;;;5034864;28;20651;-71
2024/03/02 03:14:55;;;;;;;14.10;11.40;;;5.10;99.90;;;;;;5034801;28;20460;-72
2024/03/02 03:17:21;;;;;;;19.10;13.60;;;5.10;99.90;;;;;;5034138;28;20257;-72
2024/03/02 03:19:47;;;;;;;15.77;12.50;;;5.10;99.90;;;;;;5034574;28;20441;-72
2024/03/02 03:22:13;;;;;;;17.23;13.13;;;5.00;99.90;;;;;;5034552;28;20417;-72
2024/03/02 03:24:38;;;;;;;18.57;13.57;;;5.10;99.90;;;;;;5034632;28;20193;-72
2024/03/02 03:27:04;;;;;;;16.77;14.03;;;5.10;99.90;;;;;;5033943;28;20421;-72
2024/03/02 03:29:30;;;;;;;18.77;13.10;;;5.00;99.90;;;;;;5034439;28;20339;-72
2024/03/02 03:31:55;;;;;;;19.47;13.70;;;5.00;99.90;;;;;;5034445;28;20178;-72
2024/03/02 03:34:21;;;;;;;16.97;12.50;;;5.00;99.90;;;;;;5034289;28;20206;-71
2024/03/02 03:36:46;;;;;;;18.40;13.43;;;5.00;99.90;;;;;;5033647;28;20904;-72
2024/03/02 03:39:12;;;;;;;16.50;13.53;;;5.00;99.90;;;;;;5034296;28;20194;-72
2024/03/02 03:41:37;;;;;;;17.00;12.50;;;5.00;99.90;;;;;;5034229;28;20216;-72
2024/03/02 03:44:03;;;;;;;16.97;13.07;;;5.00;99.90;;;;;;5034394;28;20174;-72
2024/03/02 03:46:29;;;;;;;17.50;12.83;;;5.00;99.90;;;;;;5033524;28;20221;-72
2024/03/02 03:48:55;;;;;;;18.83;13.03;;;5.00;99.90;;;;;;5034148;28;20440;-72
2024/03/02 03:51:22;;;;;;;17.17;13.30;;;5.00;99.90;;;;;;5034086;28;20420;-72
2024/03/02 03:53:48;;;;;;;15.63;12.87;;;5.00;99.90;;;;;;5033990;28;20559;-71
2024/03/02 03:56:14;;;;;;;18.07;13.40;;;5.00;99.90;;;;;;5033324;28;20496;-72
2024/03/02 03:58:39;;;;;;;16.70;13.03;;;5.00;99.90;;;;;;5033322;28;20206;-72
2024/03/02 04:01:05;;;;;;;16.23;13.80;;;5.00;99.90;;;;;;5033953;28;20254;-72
2024/03/02 04:03:30;;;;;;;18.07;13.53;;;4.90;99.90;;;;;;5033757;28;20185;-71
2024/03/02 04:05:56;;;;;;;17.30;13.37;;;4.90;99.90;;;;;;5033804;28;20221;-71
2024/03/02 04:08:21;;;;;;;20.83;14.73;;;4.90;99.90;;;;;;5033037;28;20618;-71
2024/03/02 04:10:47;;;;;;;17.90;13.70;;;4.90;99.90;;;;;;5033813;28;20178;-71
2024/03/02 04:13:13;;;;;;;18.60;13.23;;;4.90;99.90;;;;;;5032425;28;20288;-71
2024/03/02 04:15:38;;;;;;;18.23;13.07;;;4.90;99.90;;;;;;5033619;28;20289;-71
2024/03/02 04:18:04;;;;;;;19.10;14.40;;;4.90;99.90;;;;;;5032774;28;20197;-72
2024/03/02 04:20:30;;;;;;;16.83;14.17;;;4.90;99.90;;;;;;5033630;28;20174;-72
2024/03/02 04:22:55;;;;;;;18.07;14.40;;;4.90;99.90;;;;;;5033562;28;20244;-71
2024/03/02 04:25:21;;;;;;;18.00;12.57;;;4.90;99.90;;;;;;5033524;28;20260;-71
2024/03/02 04:27:47;;;;;;;19.03;13.80;;;4.90;99.90;;;;;;5032647;28;20178;-71
2024/03/02 04:30:13;;;;;;;17.37;13.43;;;4.80;99.90;;;;;;5033459;28;20163;-72
2024/03/02 04:32:38;;;;;;;18.03;13.30;;;4.80;99.90;;;;;;5033271;28;20432;-72
2024/03/02 04:35:05;;;;;;;18.50;13.30;;;4.80;99.90;;;;;;5033203;28;20548;-72
2024/03/02 04:37:34;;;;;;;17.20;12.97;;;4.70;99.90;;;;;;5032486;28;20177;-72
2024/03/02 04:39:59;;;;;;;19.10;13.87;;;4.70;99.90;;;;;;5033140;28;20447;-71
2024/03/02 04:42:25;;;;;;;15.13;12.70;;;4.70;99.90;;;;;;5033144;28;20418;-72
2024/03/02 04:44:50;;;;;;;18.17;15.53;;;4.70;99.90;;;;;;5033071;28;20599;-72
2024/03/02 04:47:16;;;;;;;18.10;13.53;;;4.80;99.90;;;;;;5032262;28;20174;-71
2024/03/02 04:49:41;;;;;;;20.43;13.60;;;4.70;99.90;;;;;;5032884;28;20212;-72
2024/03/02 04:52:07;;;;;;;15.80;13.20;;;4.70;99.90;;;;;;5033014;28;20643;-71
2024/03/02 04:54:34;;;;;;;19.70;14.57;;;4.70;99.90;;;;;;5032841;28;20206;-71
2024/03/02 04:57:00;;;;;;;22.70;15.30;;;4.70;99.90;;;;;;5032027;28;20201;-72
2024/03/02 04:59:26;;;;;;;19.67;14.17;;;4.60;99.90;;;;;;5032737;28;20440;-71
2024/03/02 05:01:52;;;;;;;19.77;13.90;;;4.60;99.90;;;;;;5032671;28;20162;-71
2024/03/02 05:04:17;;;;;;;18.47;13.90;;;4.60;99.90;;;;;;5032693;28;20427;-72
2024/03/02 05:06:43;;;;;;;18.93;14.87;;;4.50;99.90;;;;;;5031222;28;20166;-71
2024/03/02 05:09:09;;;;;;;16.00;13.83;;;4.50;99.90;;;;;;5032571;28;20190;-72
2024/03/02 05:14:04;;;;;;;19.30;14.40;;;4.50;99.90;;;;;;5032600;28;20197;-72
2024/03/02 05:16:32;;;;;;;19.37;14.63;;;4.50;99.90;;;;;;5031688;28;20409;-71
2024/03/02 05:18:58;;;;;;;22.30;14.83;;;4.40;99.90;;;;;;5032367;28;20433;-72
2024/03/02 05:21:23;;;;;;;22.17;15.70;;;4.40;99.90;;;;;;5032409;28;20428;-71
2024/03/02 05:23:49;;;;;;;17.63;14.53;;;4.40;99.90;;;;;;5032338;28;20647;-72
2024/03/02 05:26:14;;;;;;;18.93;13.93;;;4.40;99.90;;;;;;5032275;28;20182;-72
2024/03/02 05:28:40;;;;;;;26.50;15.53;;;4.40;99.90;;;;;;5031789;28;20201;-71
2024/03/02 05:31:06;;;;;;;22.50;15.40;;;4.40;99.90;;;;;;5032262;28;20671;-71
2024/03/02 05:33:33;;;;;;;20.50;15.20;;;4.40;99.90;;;;;;5032180;28;20522;-72
2024/03/02 05:35:58;;;;;;;24.50;16.67;;;4.40;99.90;;;;;;5032178;28;20455;-71
2024/03/02 05:38:24;;;;;;;24.10;15.10;;;4.40;99.90;;;;;;5031422;28;20468;-72
2024/03/02 05:40:50;;;;;;;21.73;14.30;;;4.40;99.90;;;;;;5032142;28;20199;-72
2024/03/02 05:43:15;;;;;;;20.30;14.33;;;4.40;99.90;;;;;;5032166;28;20196;-72
2024/03/02 05:45:41;;;;;;;19.77;15.00;;;4.40;99.90;;;;;;5032010;28;20177;-72
2024/03/02 05:48:07;;;;;;;20.57;15.00;;;4.40;99.90;;;;;;5031379;28;20198;-72
2024/03/02 05:50:33;;;;;;;19.23;14.53;;;4.40;99.90;;;;;;5032087;28;20612;-72
2024/03/02 05:52:58;;;;;;;19.77;15.17;;;4.40;99.90;;;;;;5031947;28;20508;-72
2024/03/02 05:55:24;;;;;;;20.67;14.70;;;4.30;99.90;;;;;;5032050;28;20177;-71
2024/03/02 05:58:17;;;;;;;16.93;12.70;;;4.30;99.90;;;;;;5031113;28;20655;-71
2024/03/02 06:00:41;;;;;;;21.80;13.13;;;4.30;99.90;;;;;;5031862;28;20714;-71
2024/03/02 06:03:07;;;;;;;24.57;14.53;;;4.30;99.90;;;;;;5032362;28;20421;-74
2024/03/02 06:05:33;;;;;;;18.10;13.97;;;4.30;99.90;;;;;;5031974;28;20595;-74
2024/03/02 06:07:58;;;;;;;20.00;14.37;;;4.40;99.90;;;;;;5031162;28;20433;-74
2024/03/02 06:10:24;;;;;;;16.87;13.37;;;4.40;99.90;;;;;;5031600;28;20170;-74
2024/03/02 06:12:50;;;;;;;19.37;15.20;;;4.40;99.90;;;;;;5031803;28;20174;-74
2024/03/02 06:15:15;;;;;;;17.73;13.67;;;4.40;99.90;;;;;;5031780;28;20240;-74
2024/03/02 06:17:41;;;;;;;25.37;17.27;;;4.50;99.90;;;;;;5030993;28;20170;-74
2024/03/02 06:20:08;;;;;;;23.80;14.60;;;4.50;99.90;;;;;;5035804;28;20174;-74
2024/03/02 06:22:34;;;;;;;17.80;13.33;;;4.50;99.90;;;;;;5035803;28;20174;-74
2024/03/02 06:25:00;;;;;;;20.70;13.93;;;4.60;99.90;;;;;;5035736;28;20436;-74
2024/03/02 06:27:25;;;;;;;18.23;13.27;;;4.60;99.90;;;;;;5034966;28;20424;-74
2024/03/02 06:29:51;;;;;;;23.03;14.90;;;4.70;99.90;;;;;;5035577;28;20193;-74
2024/03/02 06:32:17;;;;;;;23.00;14.53;;;4.80;99.90;;;;;;5035579;28;20196;-74
2024/03/02 06:34:42;;;;;;;21.20;14.80;;;4.80;99.90;;;;;;5035520;28;20683;-74
2024/03/02 06:37:08;;;;;;;20.57;14.80;;;4.90;99.90;;;;;;5034870;28;20158;-74
2024/03/02 06:39:34;;;;;;;19.23;13.70;;;4.90;99.90;;;;;;5035460;28;20274;-74
2024/03/02 06:42:00;;;;;;;26.67;15.30;;;5.00;99.90;;;;;;5035499;28;20253;-74
2024/03/02 06:44:25;;;;;;;17.50;13.87;;;5.10;99.90;;;;;;5035460;28;20471;-74
2024/03/02 06:46:51;;;;;;;20.67;15.57;;;5.20;99.90;;;;;;5034698;28;20452;-74
2024/03/02 06:49:17;;;;;;;20.93;14.23;;;5.30;99.90;;;;;;5035160;28;20729;-74
2024/03/02 06:51:43;;;;;;;18.83;14.40;;;5.40;99.90;;;;;;5035226;28;20192;-74
2024/03/02 06:54:09;;;;;;;16.50;12.77;;;5.40;99.90;;;;;;5035166;28;20539;-74
2024/03/02 06:56:35;;;;;;;22.40;15.70;;;5.50;99.90;;;;;;5034373;28;20420;-74
2024/03/02 06:59:01;;;;;;;19.30;12.47;;;5.60;99.90;;;;;;5035028;28;20384;-74
2024/03/02 07:01:27;;;;;;;18.90;13.97;;;5.60;99.90;;;;;;5034996;28;20978;-74
2024/03/02 07:03:53;;;;;;;18.50;12.50;;;5.60;99.90;;;;;;5035054;28;20208;-74
2024/03/02 07:06:19;;;;;;;20.17;12.43;;;5.60;99.90;;;;;;5034654;28;20919;-74
2024/03/02 07:08:44;;;;;;;17.17;13.27;;;5.60;99.90;;;;;;5034425;28;20195;-74
2024/03/02 07:11:10;;;;;;;20.17;13.47;;;5.70;99.90;;;;;;5034771;28;20201;-74
2024/03/02 07:13:35;;;;;;;22.07;14.57;;;5.70;99.90;;;;;;5034723;28;20293;-74
2024/03/02 07:18:30;;;;;;;17.13;13.30;;;6.10;99.90;;;;;;5034042;28;20563;-74
2024/03/02 07:20:59;;;;;;;15.97;11.33;;;6.20;99.90;;;;;;5034701;28;20495;-74
2024/03/02 07:23:27;;;;;;;13.20;11.80;;;6.40;99.90;;;;;;5034575;28;20425;-74
2024/03/02 07:25:56;;;;;;;16.80;12.77;;;6.50;99.90;;;;;;5034919;28;20943;-74
2024/03/02 07:28:24;;;;;;;18.40;12.67;;;6.70;99.90;;;;;;5033893;28;20542;-74
2024/03/02 07:31:04;;;;;;;18.80;13.50;;;7.00;99.90;;;;;;5033495;28;20428;-74
2024/03/02 07:33:30;;;;;;;16.07;12.03;;;7.20;99.90;;;;;;5034482;28;20452;-74
2024/03/02 07:35:56;;;;;;;17.70;10.67;;;7.20;99.90;;;;;;5034396;28;20417;-74
2024/03/02 07:38:22;;;;;;;15.17;11.23;;;7.00;99.90;;;;;;5033611;28;20455;-74
2024/03/02 07:40:51;;;;;;;15.40;11.03;;;6.90;99.90;;;;;;5034384;28;20417;-74
2024/03/02 07:43:17;;;;;;;15.00;11.07;;;6.80;99.90;;;;;;5034285;28;20508;-74
2024/03/02 07:45:43;;;;;;;15.10;10.90;;;6.70;99.90;;;;;;5034148;28;20492;-74
2024/03/02 07:48:09;;;;;;;16.17;10.33;;;6.60;99.90;;;;;;5033406;28;20540;-74
2024/03/02 07:50:35;;;;;;;14.13;11.20;;;6.60;99.90;;;;;;5034143;28;20174;-74
2024/03/02 07:53:03;;;;;;;16.90;12.30;;;6.60;99.90;;;;;;5034101;28;20577;-74
2024/03/02 07:55:29;;;;;;;15.00;11.80;;;6.60;99.90;;;;;;5034039;28;20421;-74
2024/03/02 07:57:56;;;;;;;15.30;11.57;;;6.60;99.90;;;;;;5033196;28;20887;-74
2024/03/02 08:00:22;;;;;;;15.17;11.67;;;6.60;99.90;;;;;;5033897;28;20412;-74
2024/03/02 08:02:48;;;;;;;12.00;10.70;;;6.60;99.90;;;;;;5033969;28;20497;-74
2024/03/02 08:05:13;;;;;;;12.87;10.77;;;6.60;99.90;;;;;;5033879;28;20504;-74
2024/03/02 08:07:39;;;;;;;15.67;11.93;;;6.70;99.90;;;;;;5033083;28;20254;-73
2024/03/02 08:10:05;;;;;;;14.13;11.37;;;6.70;99.90;;;;;;5033809;28;20221;-74
2024/03/02 08:12:31;;;;;;;12.43;10.50;;;6.70;99.90;;;;;;5033742;28;20181;-74
2024/03/02 08:14:56;;;;;;;14.40;11.33;;;6.80;99.90;;;;;;5033514;28;20456;-74
2024/03/02 08:17:22;;;;;;;12.90;9.77;;;7.10;99.90;;;;;;5032911;28;20189;-74
2024/03/02 08:19:48;;;;;;;12.80;11.07;;;7.30;99.90;;;;;;5033446;28;20190;-74
2024/03/02 08:22:15;;;;;;;13.97;10.03;;;7.40;99.90;;;;;;5033576;28;20166;-74
2024/03/02 08:24:41;;;;;;;15.33;9.73;;;7.70;99.90;;;;;;5033489;28;20432;-73
2024/03/02 08:27:06;;;;;;;11.53;9.27;;;8.00;99.90;;;;;;5032754;28;20425;-74
2024/03/02 08:29:32;;;;;;;9.40;8.50;;;8.20;99.90;;;;;;5033234;28;20484;-74
2024/03/02 08:31:57;;;;;;;12.77;9.53;;;8.50;99.90;;;;;;5033354;28;20178;-74
2024/03/02 08:34:23;;;;;;;9.83;7.70;;;8.70;99.90;;;;;;5033150;28;20198;-74
2024/03/02 08:36:49;;;;;;;8.73;7.83;;;9.10;99.90;;;;;;5032437;28;20571;-73
2024/03/02 08:39:19;;;;;;;9.07;7.97;;;9.50;99.90;;;;;;5033166;28;20190;-74
2024/03/02 08:41:45;;;;;;;10.57;8.37;;;10.00;99.90;;;;;;5033099;28;20449;-74
2024/03/02 08:44:12;;;;;;;8.77;7.83;;;10.30;99.90;;;;;;5033096;28;20417;-74
2024/03/02 08:46:39;;;;;;;8.17;7.27;;;10.30;99.90;;;;;;5032284;28;20919;-74
2024/03/02 08:49:05;;;;;;;10.87;9.20;;;10.30;99.90;;;;;;5032910;28;20876;-74
2024/03/02 08:51:30;;;;;;;8.37;7.57;;;10.40;99.90;;;;;;5032907;28;20500;-73
2024/03/02 08:53:57;;;;;;;9.07;8.17;;;11.10;99.90;;;;;;5032809;28;20293;-73
2024/03/02 08:56:23;;;;;;;9.00;8.10;;;12.10;99.90;;;;;;5032645;28;20173;-74
2024/03/02 08:58:50;;;;;;;9.27;6.90;;;12.40;99.90;;;;;;5032441;28;20467;-74
2024/03/02 09:01:16;;;;;;;8.37;7.50;;;12.50;99.90;;;;;;5032811;28;20417;-74
2024/03/02 09:03:44;;;;;;;7.50;6.80;;;12.70;99.90;;;;;;5032733;28;20482;-74
2024/03/02 09:06:10;;;;;;;6.77;6.17;;;13.00;99.90;;;;;;5032671;28;20490;-74
2024/03/02 09:08:36;;;;;;;8.13;7.43;;;13.20;99.90;;;;;;5031950;28;20977;-74
2024/03/02 09:11:06;;;;;;;7.40;6.80;;;13.30;99.90;;;;;;5032638;28;20877;-74
2024/03/02 09:13:32;;;;;;;7.60;5.90;;;13.10;99.90;;;;;;5032463;28;20530;-74
2024/03/02 09:15:57;;;;;;;7.20;6.50;;;13.30;99.90;;;;;;5032461;28;20425;-74
2024/03/02 09:18:23;;;;;;;7.03;6.27;;;13.50;99.90;;;;;;5031764;28;20244;-74
2024/03/02 09:20:48;;;;;;;6.43;5.83;;;13.60;99.90;;;;;;5032393;28;20253;-74
2024/03/02 09:23:14;;;;;;;7.17;6.57;;;14.30;99.90;;;;;;5032521;28;20209;-74
2024/03/02 09:25:40;;;;;;;5.90;5.40;;;15.10;99.90;;;;;;5032454;28;20640;-74
2024/03/02 09:28:06;;;;;;;5.90;5.40;;;15.30;99.90;;;;;;5031515;28;20239;-74
2024/03/02 09:30:32;;;;;;;6.30;5.60;;;15.40;99.90;;;;;;5032306;28;20166;-74
2024/03/02 09:32:58;;;;;;;6.13;5.53;;;16.00;99.90;;;;;;5032114;28;20428;-74
2024/03/02 09:35:23;;;;;;;6.33;5.83;;;15.60;99.90;;;;;;5032212;28;20174;-74
2024/03/02 09:37:48;;;;;;;6.90;5.07;;;16.50;97.70;;;;;;5031464;28;20538;-74
2024/03/02 09:40:14;;;;;;;6.17;5.60;;;16.80;95.60;;;;;;5032284;28;20178;-74
2024/03/02 09:42:40;;;;;;;6.27;5.77;;;16.80;93.90;;;;;;5032176;28;20308;-74
2024/03/02 09:45:07;;;;;;;5.53;5.13;;;16.70;92.60;;;;;;5032126;28;20268;-74
2024/03/02 09:47:32;;;;;;;8.63;5.27;;;17.00;91.80;;;;;;5031353;28;20516;-74
2024/03/02 09:49:59;;;;;;;6.10;5.50;;;17.40;90.20;;;;;;5032045;28;20461;-74
2024/03/02 09:52:24;;;;;;;6.20;5.03;;;17.90;86.50;;;;;;5031817;28;20170;-74
2024/03/02 09:54:50;;;;;;;6.20;5.70;;;18.90;78.30;;;;;;5031753;28;21028;-75
2024/03/02 09:57:16;;;;;;;5.77;5.27;;;19.40;75.80;;;;;;5031121;28;20695;-74
2024/03/02 09:59:41;;;;;;;5.17;4.67;;;18.90;73.80;;;;;;5031847;28;20632;-74
2024/03/02 10:02:07;;;;;;;4.90;4.50;;;18.40;73.90;;;;;;5031885;28;20170;-74
2024/03/02 10:04:35;;;;;;;4.03;3.73;;;18.60;73.70;;;;;;5031913;28;20227;-75
2024/03/02 10:07:17;;;;;;;4.63;3.73;;;18.50;71.20;;;;;;5031128;28;20508;-74
2024/03/02 10:09:45;;;;;;;4.70;4.30;;;18.20;72.80;;;;;;5031841;28;20814;-74
2024/03/02 10:12:13;;;;;;;4.40;4.10;;;18.20;74.10;;;;;;5031732;28;20421;-74
2024/03/02 10:14:39;;;;;;;4.37;4.07;;;18.10;72.40;;;;;;5031724;28;20484;-74
2024/03/02 10:17:09;;;;;;;4.30;3.90;;;18.40;72.30;;;;;;5031026;28;20432;-74
2024/03/02 10:19:36;;;;;;;4.73;4.40;;;19.70;69.10;;;;;;5031692;28;20532;-75
2024/03/02 10:22:05;;;;;;;5.53;4.53;;;20.60;64.10;;;;;;5031751;28;20421;-75
2024/03/02 10:24:38;;;;;;;4.60;4.30;;;20.60;62.20;;;;;;5031782;28;20455;-74
2024/03/02 10:27:15;;;;;;;4.53;4.23;;;22.10;57.40;;;;;;5030928;28;20417;-75
2024/03/02 10:29:41;;;;;;;5.60;5.20;;;22.80;54.10;;;;;;5031821;28;20735;-75
2024/03/02 10:32:09;;;;;;;4.87;4.47;;;21.70;52.70;;;;;;5031654;28;20432;-75
2024/03/02 10:34:35;;;;;;;4.30;3.90;;;21.40;53.20;;;;;;5031549;28;20202;-75
2024/03/02 10:37:01;;;;;;;4.20;3.90;;;22.80;51.40;;;;;;5030752;28;21038;-75
2024/03/02 10:39:28;;;;;;;4.50;4.10;;;22.90;49.20;;;;;;5031448;28;20486;-75
2024/03/02 10:41:55;;;;;;;3.50;3.30;;;22.10;50.20;;;;;;5031539;28;20217;-75
2024/03/02 10:44:22;;;;;;;3.30;3.10;;;21.80;48.90;;;;;;5031501;28;20449;-74
2024/03/02 10:46:50;;;;;;;3.60;3.30;;;22.70;49.30;;;;;;5030940;28;21152;-74
2024/03/02 10:49:17;;;;;;;3.60;3.40;;;23.30;47.50;;;;;;5031588;28;20437;-74
2024/03/02 10:51:43;;;;;;;3.50;3.20;;;22.60;46.50;;;;;;5031532;28;20429;-75
2024/03/02 10:54:08;;;;;;;2.57;2.43;;;23.00;46.80;;;;;;5031460;28;20823;-75
2024/03/02 10:56:39;;;;;;;3.27;3.07;;;22.90;44.30;;;;;;5030664;28;20178;-75
2024/03/02 10:59:30;;;;;;;3.93;3.13;;;24.10;44.00;;;;;;5031568;28;20197;-75
2024/03/02 11:02:00;;;;;;;10.70;6.93;;;24.10;42.70;;;;;;5031568;28;20440;-75
2024/03/02 11:04:27;;;;;;;4.37;4.07;;;24.90;41.40;;;;;;5031393;28;20417;-74
2024/03/02 11:07:04;;;;;;;3.43;3.23;;;25.30;39.60;;;;;;5034025;28;20504;-75
2024/03/02 11:09:32;;;;;;;4.77;3.60;;;25.60;37.90;;;;;;5034622;28;20875;-75
2024/03/02 11:12:09;;;;;;;3.03;2.80;;;25.40;38.50;;;;;;5034918;28;20495;-75
2024/03/02 11:14:40;;;;;;;4.10;3.80;;;26.30;37.40;;;;;;5034895;28;20506;-75
2024/03/02 11:17:06;;;;;;;4.67;4.27;;;26.60;36.00;;;;;;5034099;28;20417;-74
2024/03/02 11:19:34;;;;;;;3.70;3.40;;;26.30;35.40;;;;;;5034786;28;20835;-75
2024/03/02 11:22:00;;;;;;;2.40;2.30;;;26.60;36.50;;;;;;5034609;28;20491;-75
2024/03/02 11:24:35;;;;;;;3.70;3.40;;;28.10;33.10;;;;;;5034632;28;20844;-75
2024/03/02 11:27:05;;;;;;;4.60;3.90;;;27.00;33.00;;;;;;5033845;28;20495;-75
2024/03/02 11:29:40;;;;;;;6.27;4.47;;;27.60;33.20;;;;;;5034526;28;20428;-75
2024/03/02 11:32:13;;;;;;;4.30;3.90;;;28.50;31.40;;;;;;5034540;28;20428;-75
2024/03/02 11:34:44;;;;;;;3.20;2.97;;;27.30;31.30;;;;;;5034475;28;20530;-75
2024/03/02 11:37:10;;;;;;;2.10;2.00;;;26.00;32.80;;;;;;5033727;28;20489;-75
2024/03/02 11:39:38;;;;;;;2.50;2.40;;;25.00;32.10;;;;;;5034383;28;20904;-74
2024/03/02 11:42:11;;;;;;;2.90;2.70;;;26.70;32.10;;;;;;5034384;28;20257;-75
2024/03/02 11:44:37;;;;;;;3.47;2.73;;;27.20;30.90;;;;;;5034379;28;20409;-75
2024/03/02 11:47:07;;;;;;;3.00;1.77;;;25.00;31.60;;;;;;5033558;28;20413;-75
2024/03/02 11:49:52;;;;;;;2.30;2.20;;;25.00;32.50;;;;;;5034193;28;20437;-75
2024/03/02 11:52:18;;;;;;;2.63;2.43;;;24.10;33.70;;;;;;5034101;28;20420;-74
2024/03/02 11:54:48;;;;;;;2.70;2.50;;;24.30;33.50;;;;;;5034024;28;20492;-75
2024/03/02 11:57:16;;;;;;;5.30;4.90;;;23.00;34.30;;;;;;5033338;28;20801;-74
2024/03/02 11:59:42;;;;;;;2.33;2.20;;;23.20;35.00;;;;;;5033957;28;20523;-74
2024/03/02 12:02:17;;;;;;;2.03;1.93;;;22.80;34.90;;;;;;5034471;28;20503;-73
2024/03/02 12:04:43;;;;;;;2.20;1.73;;;21.70;35.70;;;;;;5033964;28;20448;-72
2024/03/02 12:07:09;;;;;;;2.17;1.93;;;22.40;36.80;;;;;;5033178;28;20431;-72
2024/03/02 12:09:34;;;;;;;1.67;1.57;;;24.40;33.70;;;;;;5033717;28;20524;-72
2024/03/02 12:12:10;;;;;;;1.80;1.70;;;26.20;31.10;;;;;;5033702;28;20713;-72
2024/03/02 12:14:37;;;;;;;1.87;1.77;;;27.00;29.90;;;;;;5033764;28;20216;-73
2024/03/02 12:17:04;;;;;;;2.40;2.07;;;28.10;29.10;;;;;;5032611;28;20832;-72
2024/03/02 12:19:30;;;;;;;1.80;1.70;;;27.80;28.40;;;;;;5033558;28;20432;-72
2024/03/02 12:21:57;;;;;;;2.33;2.07;;;27.20;29.10;;;;;;5033608;28;20452;-72
2024/03/02 12:24:24;;;;;;;1.90;1.80;;;27.20;29.10;;;;;;5033513;28;20918;-73
2024/03/02 12:26:53;;;;;;;2.53;2.33;;;25.70;29.40;;;;;;5032787;28;20436;-72
2024/03/02 12:29:22;;;;;;;2.20;2.10;;;26.40;29.70;;;;;;5033370;28;20437;-72
2024/03/02 12:31:48;;;;;;;2.00;1.90;;;26.20;29.30;;;;;;5033498;28;20421;-73
2024/03/02 12:34:15;;;;;;;1.90;1.80;;;26.80;29.90;;;;;;5033297;28;20461;-73
2024/03/02 12:36:41;;;;;;;2.37;2.17;;;26.10;29.20;;;;;;5032570;28;20408;-73
2024/03/02 12:39:11;;;;;;;3.40;2.90;;;26.10;30.00;;;;;;5033205;28;20523;-72
2024/03/02 12:41:40;;;;;;;2.50;2.30;;;27.80;28.90;;;;;;5033151;28;20926;-73
2024/03/02 12:44:06;;;;;;;2.20;2.10;;;28.40;27.90;;;;;;5033174;28;20427;-73